createdAt,value
2018-07-19T00:00:50.297Z,19.99
2018-07-19T00:01:50.274Z,19.86
2018-07-19T00:02:50.257Z,19.89
2018-07-19T00:03:50.248Z,19.84
2018-07-19T00:04:50.208Z,19.84
2018-07-19T00:05:50.177Z,19.88
2018-07-19T00:06:50.156Z,19.85
2018-07-19T00:07:50.133Z,19.86
2018-07-19T00:08:50.113Z,19.86
2018-07-19T00:09:50.080Z,19.89
2018-07-19T00:10:50.063Z,19.92
2018-07-19T00:11:50.031Z,19.91
2018-07-19T00:12:50.035Z,19.85
2018-07-19T00:13:49.987Z,19.92
2018-07-19T00:14:49.967Z,19.71
2018-07-19T00:15:49.941Z,19.74
2018-07-19T00:16:49.916Z,19.77
2018-07-19T00:17:49.882Z,19.64
2018-07-19T00:18:49.878Z,19.76
2018-07-19T00:19:49.838Z,19.79
2018-07-19T00:20:49.815Z,19.91
2018-07-19T00:21:49.784Z,19.86
2018-07-19T00:22:49.796Z,19.86
2018-07-19T00:23:49.751Z,19.86
2018-07-19T00:24:49.709Z,19.88
2018-07-19T00:25:49.696Z,19.85
2018-07-19T00:26:49.665Z,19.71
2018-07-19T00:27:49.646Z,19.64
2018-07-19T00:28:49.612Z,19.58
2018-07-19T00:29:49.593Z,19.66
2018-07-19T00:30:49.562Z,19.64
2018-07-19T00:31:49.549Z,19.48
2018-07-19T00:32:49.521Z,19.58
2018-07-19T00:33:49.526Z,19.58
2018-07-19T00:34:49.466Z,19.63
2018-07-19T00:35:49.449Z,19.64
2018-07-19T00:36:49.422Z,19.73
2018-07-19T00:37:49.392Z,19.64
2018-07-19T00:38:49.373Z,19.67
2018-07-19T00:39:49.346Z,19.59
2018-07-19T00:40:49.335Z,19.59
2018-07-19T00:41:49.294Z,19.48
2018-07-19T00:42:49.274Z,19.51
2018-07-19T00:43:49.250Z,19.52
2018-07-19T00:44:49.225Z,19.41
2018-07-19T00:45:49.199Z,19.44
2018-07-19T00:46:49.194Z,19.44
2018-07-19T00:47:49.152Z,19.40
2018-07-19T00:48:49.123Z,19.44
2018-07-19T00:49:49.097Z,19.49
2018-07-19T00:50:49.073Z,19.48
2018-07-19T00:51:49.057Z,19.54
2018-07-19T00:52:49.041Z,19.55
2018-07-19T00:53:49.003Z,19.52
2018-07-19T00:54:48.981Z,19.56
2018-07-19T00:55:48.950Z,19.49
2018-07-19T00:56:48.924Z,19.52
2018-07-19T00:57:48.906Z,19.62
2018-07-19T00:58:48.875Z,19.54
2018-07-19T00:59:48.857Z,19.54
2018-07-19T01:00:48.833Z,19.47
2018-07-19T01:01:48.801Z,19.36
2018-07-19T01:02:48.783Z,19.33
2018-07-19T01:03:48.753Z,19.41
2018-07-19T01:04:48.725Z,19.31
2018-07-19T01:05:48.720Z,19.33
2018-07-19T01:06:48.685Z,19.30
2018-07-19T01:07:48.651Z,19.24
2018-07-19T01:08:48.633Z,19.22
2018-07-19T01:09:48.604Z,19.22
2018-07-19T01:10:48.581Z,19.22
2018-07-19T01:11:48.559Z,19.24
2018-07-19T01:12:48.532Z,19.19
2018-07-19T01:13:48.511Z,19.18
2018-07-19T01:14:48.487Z,19.11
2018-07-19T01:15:48.455Z,19.12
2018-07-19T01:16:48.433Z,19.02
2018-07-19T01:17:48.417Z,18.99
2018-07-19T01:18:48.388Z,18.98
2018-07-19T01:19:48.357Z,18.83
2018-07-19T01:20:48.340Z,18.88
2018-07-19T01:21:48.304Z,18.88
2018-07-19T01:22:48.286Z,18.88
2018-07-19T01:23:48.261Z,18.89
2018-07-19T01:24:48.236Z,18.86
2018-07-19T01:25:48.206Z,18.81
2018-07-19T01:26:48.187Z,18.84
2018-07-19T01:27:48.160Z,18.81
2018-07-19T01:28:48.136Z,18.75
2018-07-19T01:29:48.121Z,18.80
2018-07-19T01:30:48.092Z,18.63
2018-07-19T01:31:48.059Z,18.68
2018-07-19T01:32:48.042Z,18.68
2018-07-19T01:33:48.006Z,18.62
2018-07-19T01:34:47.988Z,18.63
2018-07-19T01:35:47.968Z,18.60
2018-07-19T01:36:47.941Z,18.60
2018-07-19T01:37:47.961Z,18.66
2018-07-19T01:38:47.888Z,18.68
2018-07-19T01:39:47.868Z,18.59
2018-07-19T01:40:47.845Z,18.60
2018-07-19T01:41:47.811Z,18.62
2018-07-19T01:42:47.784Z,18.58
2018-07-19T01:43:47.769Z,18.62
2018-07-19T01:44:47.750Z,18.56
2018-07-19T01:45:47.709Z,18.49
2018-07-19T01:46:47.686Z,18.49
2018-07-19T01:47:47.670Z,18.59
2018-07-19T01:48:47.640Z,18.56
2018-07-19T01:49:47.615Z,18.53
2018-07-19T01:50:47.596Z,18.58
2018-07-19T01:51:47.565Z,18.50
2018-07-19T01:52:47.545Z,18.58
2018-07-19T01:53:47.512Z,18.59
2018-07-19T01:54:47.507Z,18.50
2018-07-19T01:55:47.465Z,18.52
2018-07-19T01:56:47.441Z,18.55
2018-07-19T01:57:47.426Z,18.44
2018-07-19T01:58:47.389Z,18.40
2018-07-19T01:59:47.371Z,18.43
2018-07-19T02:00:47.356Z,18.38
2018-07-19T02:01:47.319Z,18.41
2018-07-19T02:02:47.293Z,18.37
2018-07-19T02:03:47.277Z,18.43
2018-07-19T02:04:47.245Z,18.43
2018-07-19T02:05:47.221Z,18.37
2018-07-19T02:06:47.205Z,18.26
2018-07-19T02:07:47.167Z,18.29
2018-07-19T02:08:47.138Z,18.34
2018-07-19T02:09:47.117Z,18.49
2018-07-19T02:10:47.090Z,18.38
2018-07-19T02:11:47.069Z,18.35
2018-07-19T02:12:47.046Z,18.33
2018-07-19T02:13:47.014Z,18.28
2018-07-19T02:14:46.996Z,18.26
2018-07-19T02:15:46.963Z,18.29
2018-07-19T02:16:46.944Z,18.28
2018-07-19T02:17:46.924Z,18.23
2018-07-19T02:18:46.894Z,18.25
2018-07-19T02:19:46.868Z,18.29
2018-07-19T02:20:46.838Z,18.34
2018-07-19T02:21:46.822Z,18.40
2018-07-19T02:22:46.798Z,18.28
2018-07-19T02:23:46.772Z,18.29
2018-07-19T02:24:46.747Z,18.40
2018-07-19T02:25:46.731Z,18.38
2018-07-19T02:26:46.694Z,18.38
2018-07-19T02:27:46.670Z,18.41
2018-07-19T02:28:46.643Z,18.34
2018-07-19T02:29:46.623Z,18.28
2018-07-19T02:30:46.606Z,18.26
2018-07-19T02:31:46.575Z,18.40
2018-07-19T02:32:46.539Z,18.35
2018-07-19T02:33:46.524Z,18.43
2018-07-19T02:34:46.494Z,18.50
2018-07-19T02:35:46.473Z,18.53
2018-07-19T02:36:46.448Z,18.47
2018-07-19T02:37:46.420Z,18.53
2018-07-19T02:38:46.389Z,18.56
2018-07-19T02:39:46.367Z,18.52
2018-07-19T02:40:46.356Z,18.55
2018-07-19T02:41:46.317Z,18.50
2018-07-19T02:42:46.294Z,18.49
2018-07-19T02:43:46.299Z,18.55
2018-07-19T02:44:46.248Z,18.41
2018-07-19T02:45:46.220Z,18.37
2018-07-19T02:46:46.199Z,18.23
2018-07-19T02:47:46.173Z,18.29
2018-07-19T02:48:46.143Z,18.34
2018-07-19T02:49:46.120Z,18.34
2018-07-19T02:50:46.094Z,18.41
2018-07-19T02:51:46.074Z,18.45
2018-07-19T02:52:46.040Z,18.49
2018-07-19T02:53:46.022Z,18.52
2018-07-19T02:54:45.998Z,18.58
2018-07-19T02:55:45.972Z,18.49
2018-07-19T02:56:45.947Z,18.56
2018-07-19T02:57:45.919Z,18.56
2018-07-19T02:58:45.895Z,18.55
2018-07-19T02:59:45.868Z,18.63
2018-07-19T03:00:45.839Z,18.62
2018-07-19T03:01:45.823Z,18.56
2018-07-19T03:02:45.793Z,18.56
2018-07-19T03:03:45.767Z,18.53
2018-07-19T03:04:45.748Z,18.55
2018-07-19T03:05:45.716Z,18.44
2018-07-19T03:06:45.701Z,18.31
2018-07-19T03:07:45.678Z,18.37
2018-07-19T03:08:45.648Z,18.38
2018-07-19T03:09:45.613Z,18.28
2018-07-19T03:10:45.596Z,18.26
2018-07-19T03:11:45.582Z,18.29
2018-07-19T03:12:45.539Z,18.33
2018-07-19T03:13:45.516Z,18.29
2018-07-19T03:14:45.494Z,18.31
2018-07-19T03:15:45.465Z,18.25
2018-07-19T03:16:45.449Z,18.23
2018-07-19T03:17:45.415Z,18.28
2018-07-19T03:18:45.391Z,18.20
2018-07-19T03:19:45.368Z,18.28
2018-07-19T03:20:45.343Z,18.26
2018-07-19T03:21:45.318Z,18.28
2018-07-19T03:22:45.290Z,18.28
2018-07-19T03:23:45.269Z,18.37
2018-07-19T03:24:45.238Z,18.38
2018-07-19T03:25:45.220Z,18.37
2018-07-19T03:26:45.225Z,18.41
2018-07-19T03:27:45.170Z,18.41
2018-07-19T03:28:45.145Z,18.38
2018-07-19T03:29:45.116Z,18.35
2018-07-19T03:30:45.094Z,18.38
2018-07-19T03:31:45.069Z,18.40
2018-07-19T03:32:45.043Z,18.31
2018-07-19T03:33:45.020Z,18.25
2018-07-19T03:34:44.993Z,18.10
2018-07-19T03:35:44.965Z,18.08
2018-07-19T03:36:44.942Z,18.05
2018-07-19T03:37:44.919Z,18.07
2018-07-19T03:38:44.897Z,18.16
2018-07-19T03:39:44.863Z,18.19
2018-07-19T03:40:44.847Z,18.19
2018-07-19T03:41:44.813Z,18.07
2018-07-19T03:42:44.787Z,18.04
2018-07-19T03:43:44.763Z,18.04
2018-07-19T03:44:44.784Z,18.00
2018-07-19T03:45:44.715Z,17.92
2018-07-19T03:46:44.705Z,17.87
2018-07-19T03:47:44.666Z,17.94
2018-07-19T03:48:44.644Z,17.92
2018-07-19T03:49:44.659Z,17.95
2018-07-19T03:50:44.590Z,17.98
2018-07-19T03:51:44.565Z,18.00
2018-07-19T03:52:44.541Z,18.10
2018-07-19T03:53:44.509Z,18.15
2018-07-19T03:54:44.491Z,18.20
2018-07-19T03:55:44.468Z,18.18
2018-07-19T03:56:44.440Z,18.16
2018-07-19T03:57:44.413Z,18.15
2018-07-19T03:58:44.391Z,18.19
2018-07-19T03:59:44.362Z,18.33
2018-07-19T04:00:44.338Z,18.19
2018-07-19T04:01:44.311Z,18.18
2018-07-19T04:02:44.290Z,18.11
2018-07-19T04:03:44.263Z,18.13
2018-07-19T04:04:44.267Z,18.19
2018-07-19T04:05:44.206Z,18.08
2018-07-19T04:06:44.195Z,18.07
2018-07-19T04:07:44.162Z,18.04
2018-07-19T04:08:44.140Z,18.00
2018-07-19T04:09:44.107Z,18.01
2018-07-19T04:10:44.090Z,17.98
2018-07-19T04:11:44.059Z,18.03
2018-07-19T04:12:44.037Z,17.98
2018-07-19T04:13:44.009Z,18.04
2018-07-19T04:14:43.983Z,18.08
2018-07-19T04:15:43.962Z,18.11
2018-07-19T04:16:43.940Z,18.13
2018-07-19T04:17:43.904Z,18.18
2018-07-19T04:18:43.883Z,18.07
2018-07-19T04:19:43.863Z,18.16
2018-07-19T04:20:43.838Z,18.20
2018-07-19T04:21:43.808Z,18.18
2018-07-19T04:22:43.785Z,18.15
2018-07-19T04:23:43.763Z,18.07
2018-07-19T04:24:43.733Z,18.08
2018-07-19T04:25:43.705Z,18.10
2018-07-19T04:26:43.686Z,17.95
2018-07-19T04:27:43.663Z,17.98
2018-07-19T04:28:43.635Z,17.98
2018-07-19T04:29:43.605Z,17.97
2018-07-19T04:30:43.585Z,18.00
2018-07-19T04:31:43.556Z,17.97
2018-07-19T04:32:43.525Z,17.95
2018-07-19T04:33:43.523Z,17.98
2018-07-19T04:34:43.479Z,18.01
2018-07-19T04:35:43.457Z,18.07
2018-07-19T04:36:43.433Z,17.97
2018-07-19T04:37:43.401Z,18.05
2018-07-19T04:38:43.378Z,18.07
2018-07-19T04:39:43.357Z,18.19
2018-07-19T04:40:43.329Z,18.19
2018-07-19T04:41:43.300Z,18.23
2018-07-19T04:42:43.275Z,18.18
2018-07-19T04:43:43.258Z,18.10
2018-07-19T04:44:43.230Z,18.18
2018-07-19T04:45:43.219Z,18.16
2018-07-19T04:46:43.182Z,18.16
2018-07-19T04:47:43.154Z,18.28
2018-07-19T04:48:43.127Z,18.20
2018-07-19T04:49:43.107Z,18.28
2018-07-19T04:50:43.077Z,18.31
2018-07-19T04:51:43.054Z,18.26
2018-07-19T04:52:43.028Z,18.34
2018-07-19T04:53:42.999Z,18.28
2018-07-19T04:54:42.982Z,18.25
2018-07-19T04:55:42.954Z,18.29
2018-07-19T04:56:42.922Z,18.31
2018-07-19T04:57:42.898Z,18.40
2018-07-19T04:58:42.882Z,18.40
2018-07-19T04:59:42.847Z,18.47
2018-07-19T05:00:42.828Z,18.47
2018-07-19T05:01:42.821Z,18.41
2018-07-19T05:02:42.770Z,18.49
2018-07-19T05:03:42.915Z,18.52
2018-07-19T05:04:42.801Z,18.59
2018-07-19T05:05:42.704Z,18.52
2018-07-19T05:06:42.687Z,18.53
2018-07-19T05:07:42.656Z,18.62
2018-07-19T05:08:42.632Z,18.58
2018-07-19T05:09:42.603Z,18.59
2018-07-19T05:10:42.581Z,18.63
2018-07-19T05:11:42.546Z,18.59
2018-07-19T05:12:42.529Z,18.68
2018-07-19T05:13:42.498Z,18.63
2018-07-19T05:14:42.486Z,18.65
2018-07-19T05:15:42.448Z,18.78
2018-07-19T05:16:42.427Z,18.86
2018-07-19T05:17:42.417Z,18.88
2018-07-19T05:18:42.392Z,18.90
2018-07-19T05:19:42.351Z,18.88
2018-07-19T05:20:42.331Z,18.89
2018-07-19T05:21:42.301Z,18.96
2018-07-19T05:22:42.275Z,18.88
2018-07-19T05:23:42.248Z,18.88
2018-07-19T05:24:42.223Z,18.96
2018-07-19T05:25:42.197Z,18.88
2018-07-19T05:26:42.175Z,18.88
2018-07-19T05:27:42.153Z,18.88
2018-07-19T05:28:42.125Z,18.89
2018-07-19T05:29:42.102Z,18.98
2018-07-19T05:30:42.076Z,18.96
2018-07-19T05:31:42.053Z,19.08
2018-07-19T05:32:42.041Z,19.15
2018-07-19T05:33:41.995Z,19.12
2018-07-19T05:34:42.064Z,19.18
2018-07-19T05:35:41.962Z,19.22
2018-07-19T05:36:41.926Z,19.16
2018-07-19T05:37:41.897Z,19.33
2018-07-19T05:38:41.878Z,19.40
2018-07-19T05:39:41.845Z,19.34
2018-07-19T05:40:41.821Z,19.40
2018-07-19T05:41:41.803Z,19.44
2018-07-19T05:42:41.781Z,19.41
2018-07-19T05:43:41.773Z,19.34
2018-07-19T05:44:41.724Z,19.47
2018-07-19T05:45:41.702Z,19.52
2018-07-19T05:46:41.672Z,19.54
2018-07-19T05:47:41.664Z,19.49
2018-07-19T05:48:41.627Z,19.63
2018-07-19T05:49:41.599Z,19.56
2018-07-19T05:50:41.574Z,19.66
2018-07-19T05:51:41.590Z,19.56
2018-07-19T05:52:41.535Z,19.66
2018-07-19T05:53:41.547Z,19.64
2018-07-19T05:54:41.479Z,19.74
2018-07-19T05:55:41.450Z,19.86
2018-07-19T05:56:41.420Z,19.86
2018-07-19T05:57:41.410Z,19.86
2018-07-19T05:58:41.386Z,19.95
2018-07-19T05:59:41.350Z,19.95
2018-07-19T06:00:41.483Z,19.96
2018-07-19T06:01:41.310Z,20.00
2018-07-19T06:02:41.292Z,20.00
2018-07-19T06:03:41.257Z,20.02
2018-07-19T06:04:41.233Z,20.04
2018-07-19T06:05:41.196Z,20.04
2018-07-19T06:06:41.180Z,20.11
2018-07-19T06:07:41.158Z,20.13
2018-07-19T06:08:41.128Z,20.06
2018-07-19T06:09:41.143Z,20.19
2018-07-19T06:10:41.107Z,20.19
2018-07-19T06:11:41.068Z,20.16
2018-07-19T06:12:41.033Z,20.21
2018-07-19T06:13:40.999Z,20.25
2018-07-19T06:14:40.976Z,20.36
2018-07-19T06:15:40.959Z,20.41
2018-07-19T06:16:40.934Z,20.52
2018-07-19T06:17:40.905Z,20.63
2018-07-19T06:18:40.959Z,20.66
2018-07-19T06:19:41.753Z,20.67
2018-07-19T06:20:40.826Z,20.77
2018-07-19T06:21:40.809Z,20.92
2018-07-19T06:22:40.786Z,20.95
2018-07-19T06:23:40.762Z,20.92
2018-07-19T06:24:40.736Z,21.00
2018-07-19T06:25:40.731Z,21.07
2018-07-19T06:26:40.678Z,21.21
2018-07-19T06:27:40.663Z,21.27
2018-07-19T06:28:40.635Z,21.37
2018-07-19T06:29:40.616Z,21.39
2018-07-19T06:30:40.585Z,21.50
2018-07-19T06:31:40.570Z,21.46
2018-07-19T06:32:40.538Z,21.57
2018-07-19T06:33:40.521Z,21.57
2018-07-19T06:34:40.484Z,21.66
2018-07-19T06:35:40.518Z,21.77
2018-07-19T06:36:40.435Z,21.73
2018-07-19T06:37:40.420Z,21.85
2018-07-19T06:38:40.388Z,21.92
2018-07-19T06:39:40.367Z,22.00
2018-07-19T06:40:40.339Z,22.00
2018-07-19T06:41:40.317Z,22.08
2018-07-19T06:42:40.308Z,22.13
2018-07-19T06:43:40.278Z,22.20
2018-07-19T06:44:40.245Z,22.18
2018-07-19T06:45:40.215Z,22.28
2018-07-19T06:46:40.193Z,22.29
2018-07-19T06:47:40.912Z,22.38
2018-07-19T06:48:40.147Z,22.39
2018-07-19T06:49:40.116Z,22.47
2018-07-19T06:50:40.110Z,22.45
2018-07-19T06:51:40.076Z,22.47
2018-07-19T06:52:40.049Z,22.53
2018-07-19T06:53:40.074Z,22.55
2018-07-19T06:54:40.005Z,22.57
2018-07-19T06:55:39.975Z,22.68
2018-07-19T06:56:39.948Z,22.62
2018-07-19T06:57:39.945Z,22.72
2018-07-19T06:58:39.904Z,22.73
2018-07-19T06:59:39.883Z,22.81
2018-07-19T07:00:39.855Z,22.84
2018-07-19T07:01:39.833Z,22.78
2018-07-19T07:02:39.806Z,22.98
2018-07-19T07:03:39.803Z,22.85
2018-07-19T07:04:39.839Z,22.94
2018-07-19T07:05:39.736Z,22.98
2018-07-19T07:06:39.710Z,23.00
2018-07-19T07:07:39.682Z,23.00
2018-07-19T07:08:39.664Z,23.05
2018-07-19T07:09:39.645Z,23.06
2018-07-19T07:10:39.611Z,23.03
2018-07-19T07:11:39.592Z,23.03
2018-07-19T07:12:39.562Z,22.99
2018-07-19T07:13:39.543Z,23.03
2018-07-19T07:14:39.538Z,22.99
2018-07-19T07:15:39.496Z,23.05
2018-07-19T07:16:39.474Z,23.05
2018-07-19T07:17:39.447Z,23.00
2018-07-19T07:18:39.421Z,23.09
2018-07-19T07:19:39.398Z,23.12
2018-07-19T07:20:39.375Z,23.03
2018-07-19T07:21:39.350Z,23.06
2018-07-19T07:22:39.326Z,23.03
2018-07-19T07:23:39.304Z,23.00
2018-07-19T07:24:39.272Z,23.12
2018-07-19T07:25:39.259Z,23.21
2018-07-19T07:26:39.226Z,23.15
2018-07-19T07:27:39.206Z,23.15
2018-07-19T07:28:39.177Z,23.06
2018-07-19T07:29:39.158Z,23.20
2018-07-19T07:30:39.131Z,23.09
2018-07-19T07:31:39.118Z,23.21
2018-07-19T07:32:39.080Z,23.20
2018-07-19T07:33:39.067Z,23.17
2018-07-19T07:34:39.038Z,23.32
2018-07-19T07:35:39.011Z,23.28
2018-07-19T07:36:39.008Z,23.40
2018-07-19T07:37:38.968Z,23.50
2018-07-19T07:38:38.945Z,23.46
2018-07-19T07:39:38.912Z,23.58
2018-07-19T07:40:38.898Z,23.62
2018-07-19T07:41:38.873Z,23.73
2018-07-19T07:42:38.842Z,23.74
2018-07-19T07:43:38.828Z,23.81
2018-07-19T07:44:38.795Z,23.92
2018-07-19T07:45:38.781Z,23.92
2018-07-19T07:46:38.749Z,24.01
2018-07-19T07:47:38.734Z,24.02
2018-07-19T07:48:38.703Z,24.10
2018-07-19T07:49:38.682Z,24.13
2018-07-19T07:50:38.660Z,24.14
2018-07-19T07:51:38.634Z,24.20
2018-07-19T07:52:38.612Z,24.24
2018-07-19T07:53:38.581Z,24.26
2018-07-19T07:54:38.565Z,24.39
2018-07-19T07:55:38.535Z,24.47
2018-07-19T07:56:38.513Z,24.45
2018-07-19T07:57:38.493Z,24.45
2018-07-19T07:58:38.469Z,24.45
2018-07-19T07:59:38.439Z,24.53
2018-07-19T08:00:38.422Z,24.60
2018-07-19T08:01:38.398Z,24.58
2018-07-19T08:02:38.392Z,24.74
2018-07-19T08:03:38.348Z,24.66
2018-07-19T08:04:38.321Z,24.66
2018-07-19T08:05:38.303Z,24.84
2018-07-19T08:06:38.279Z,24.80
2018-07-19T08:07:38.251Z,24.74
2018-07-19T08:08:38.224Z,24.89
2018-07-19T08:09:38.209Z,24.89
2018-07-19T08:10:38.181Z,24.93
2018-07-19T08:11:38.157Z,24.96
2018-07-19T08:12:38.133Z,25.04
2018-07-19T08:13:38.110Z,25.07
2018-07-19T08:14:38.093Z,25.16
2018-07-19T08:15:38.093Z,25.13
2018-07-19T08:16:38.047Z,25.18
2018-07-19T08:17:38.016Z,25.29
2018-07-19T08:18:38.001Z,25.29
2018-07-19T08:19:37.993Z,25.29
2018-07-19T08:20:37.945Z,25.40
2018-07-19T08:21:37.967Z,25.41
2018-07-19T08:22:37.896Z,25.44
2018-07-19T08:23:37.884Z,25.58
2018-07-19T08:24:37.855Z,25.66
2018-07-19T08:25:37.834Z,25.66
2018-07-19T08:26:37.805Z,25.68
2018-07-19T08:27:37.788Z,25.68
2018-07-19T08:28:37.766Z,25.75
2018-07-19T08:29:37.760Z,25.77
2018-07-19T08:30:37.713Z,25.73
2018-07-19T08:31:37.696Z,25.80
2018-07-19T08:32:37.675Z,25.84
2018-07-19T08:33:37.649Z,25.90
2018-07-19T08:34:37.628Z,25.91
2018-07-19T08:35:37.597Z,25.99
2018-07-19T08:36:37.578Z,26.00
2018-07-19T08:37:37.553Z,25.93
2018-07-19T08:38:37.534Z,25.99
2018-07-19T08:39:37.502Z,26.03
2018-07-19T08:40:37.479Z,26.02
2018-07-19T08:41:37.461Z,26.09
2018-07-19T08:42:37.461Z,26.15
2018-07-19T08:43:37.412Z,26.05
2018-07-19T08:44:37.400Z,26.18
2018-07-19T08:45:37.365Z,26.23
2018-07-19T08:46:37.341Z,26.23
2018-07-19T08:47:37.325Z,26.22
2018-07-19T08:48:37.295Z,26.22
2018-07-19T08:49:37.287Z,26.23
2018-07-19T08:50:37.248Z,26.22
2018-07-19T08:51:37.253Z,26.21
2018-07-19T08:52:37.200Z,26.22
2018-07-19T08:53:37.188Z,26.22
2018-07-19T08:54:37.169Z,26.21
2018-07-19T08:55:37.141Z,26.13
2018-07-19T08:56:37.117Z,26.10
2018-07-19T08:57:37.168Z,26.00
2018-07-19T08:58:37.072Z,25.98
2018-07-19T08:59:37.047Z,25.91
2018-07-19T09:00:37.031Z,25.90
2018-07-19T09:01:37.708Z,25.84
2018-07-19T09:02:37.928Z,25.90
2018-07-19T09:03:36.958Z,25.81
2018-07-19T09:04:36.932Z,25.68
2018-07-19T09:05:36.920Z,25.66
2018-07-19T09:06:36.888Z,25.65
2018-07-19T09:07:36.858Z,25.62
2018-07-19T09:08:36.872Z,25.58
2018-07-19T09:09:36.808Z,25.46
2018-07-19T09:10:36.791Z,25.46
2018-07-19T09:11:36.772Z,25.41
2018-07-19T09:12:36.748Z,25.38
2018-07-19T09:13:36.728Z,25.29
2018-07-19T09:14:36.696Z,25.26
2018-07-19T09:15:36.681Z,25.31
2018-07-19T09:16:36.653Z,25.31
2018-07-19T09:17:36.629Z,25.16
2018-07-19T09:18:36.611Z,25.18
2018-07-19T09:19:36.689Z,25.21
2018-07-19T09:20:36.556Z,25.14
2018-07-19T09:21:36.545Z,25.17
2018-07-19T09:22:36.512Z,25.11
2018-07-19T09:23:36.492Z,24.99
2018-07-19T09:24:36.467Z,25.11
2018-07-19T09:25:36.440Z,25.03
2018-07-19T09:26:36.452Z,25.07
2018-07-19T09:27:36.402Z,24.98
2018-07-19T09:28:36.368Z,25.01
2018-07-19T09:29:36.350Z,24.89
2018-07-19T09:30:36.325Z,24.93
2018-07-19T09:31:36.306Z,24.95
2018-07-19T09:32:36.291Z,24.95
2018-07-19T09:33:36.253Z,24.84
2018-07-19T09:34:36.230Z,24.91
2018-07-19T09:35:36.216Z,24.88
2018-07-19T09:36:36.185Z,24.76
2018-07-19T09:37:36.170Z,24.78
2018-07-19T09:38:36.212Z,24.81
2018-07-19T09:39:36.113Z,24.80
2018-07-19T09:40:36.100Z,24.85
2018-07-19T09:41:36.070Z,24.81
2018-07-19T09:42:36.052Z,24.80
2018-07-19T09:43:36.039Z,24.76
2018-07-19T09:44:36.009Z,24.84
2018-07-19T09:45:35.978Z,24.85
2018-07-19T09:46:35.957Z,24.85
2018-07-19T09:47:35.931Z,24.89
2018-07-19T09:48:35.908Z,24.99
2018-07-19T09:49:35.902Z,24.96
2018-07-19T09:50:35.867Z,24.99
2018-07-19T09:51:35.878Z,24.99
2018-07-19T09:52:35.822Z,25.06
2018-07-19T09:53:35.789Z,25.04
2018-07-19T09:54:35.820Z,25.08
2018-07-19T09:55:35.747Z,24.96
2018-07-19T09:56:35.723Z,24.91
2018-07-19T09:57:35.696Z,24.95
2018-07-19T09:58:35.683Z,24.98
2018-07-19T09:59:35.650Z,24.98
2018-07-19T10:00:35.629Z,25.03
2018-07-19T10:01:35.604Z,24.95
2018-07-19T10:02:35.585Z,24.99
2018-07-19T10:03:35.563Z,25.01
2018-07-19T10:04:35.540Z,25.06
2018-07-19T10:05:35.518Z,25.03
2018-07-19T10:06:35.515Z,25.08
2018-07-19T10:07:35.469Z,25.07
2018-07-19T10:08:35.442Z,25.18
2018-07-19T10:09:35.416Z,25.21
2018-07-19T10:10:35.395Z,25.25
2018-07-19T10:11:35.372Z,25.29
2018-07-19T10:12:35.362Z,25.41
2018-07-19T10:13:35.358Z,25.47
2018-07-19T10:14:35.300Z,25.48
2018-07-19T10:15:35.339Z,25.62
2018-07-19T10:16:35.259Z,25.55
2018-07-19T10:17:35.226Z,25.63
2018-07-19T10:18:35.206Z,25.72
2018-07-19T10:19:35.189Z,25.83
2018-07-19T10:20:35.199Z,25.85
2018-07-19T10:21:35.138Z,26.02
2018-07-19T10:22:35.114Z,26.06
2018-07-19T10:23:35.151Z,26.19
2018-07-19T10:24:35.067Z,26.19
2018-07-19T10:25:35.046Z,26.31
2018-07-19T10:26:35.147Z,26.44
2018-07-19T10:27:35.029Z,26.48
2018-07-19T10:28:34.986Z,26.51
2018-07-19T10:29:34.997Z,26.63
2018-07-19T10:30:34.926Z,26.75
2018-07-19T10:31:34.930Z,26.78
2018-07-19T10:32:34.970Z,26.90
2018-07-19T10:33:34.866Z,26.85
2018-07-19T10:34:34.891Z,26.96
2018-07-19T10:35:34.861Z,26.92
2018-07-19T10:36:34.836Z,27.02
2018-07-19T10:37:34.785Z,27.21
2018-07-19T10:38:34.751Z,27.25
2018-07-19T10:39:34.725Z,27.32
2018-07-19T10:40:34.735Z,27.33
2018-07-19T10:41:34.686Z,27.40
2018-07-19T10:42:34.662Z,27.51
2018-07-19T10:43:34.632Z,27.54
2018-07-19T10:44:34.609Z,27.52
2018-07-19T10:45:34.593Z,27.58
2018-07-19T10:46:34.571Z,27.71
2018-07-19T10:47:34.583Z,27.67
2018-07-19T10:48:34.520Z,27.82
2018-07-19T10:49:34.492Z,27.78
2018-07-19T10:50:34.473Z,27.77
2018-07-19T10:51:34.450Z,27.85
2018-07-19T10:52:34.430Z,27.83
2018-07-19T10:53:34.408Z,27.87
2018-07-19T10:54:34.393Z,28.00
2018-07-19T10:55:34.370Z,27.96
2018-07-19T10:56:34.348Z,28.07
2018-07-19T10:57:34.383Z,28.02
2018-07-19T10:58:34.390Z,28.02
2018-07-19T10:59:34.274Z,28.05
2018-07-19T11:00:34.259Z,28.04
2018-07-19T11:01:34.229Z,28.05
2018-07-19T11:02:34.218Z,28.02
2018-07-19T11:03:34.182Z,28.02
2018-07-19T11:04:34.165Z,28.01
2018-07-19T11:05:34.139Z,27.96
2018-07-19T11:06:34.114Z,28.00
2018-07-19T11:07:34.091Z,27.89
2018-07-19T11:08:34.076Z,27.86
2018-07-19T11:09:34.081Z,27.86
2018-07-19T11:10:34.032Z,27.89
2018-07-19T11:11:34.009Z,27.90
2018-07-19T11:12:33.992Z,27.90
2018-07-19T11:13:33.959Z,27.87
2018-07-19T11:14:33.936Z,27.86
2018-07-19T11:15:33.934Z,27.74
2018-07-19T11:16:33.920Z,27.74
2018-07-19T11:17:33.971Z,27.71
2018-07-19T11:18:33.850Z,27.70
2018-07-19T11:19:33.829Z,27.60
2018-07-19T11:20:33.802Z,27.68
2018-07-19T11:21:33.776Z,27.55
2018-07-19T11:22:33.766Z,27.59
2018-07-19T11:23:33.730Z,27.51
2018-07-19T11:24:33.718Z,27.55
2018-07-19T11:25:33.686Z,27.55
2018-07-19T11:26:33.664Z,27.49
2018-07-19T11:27:33.661Z,27.42
2018-07-19T11:28:33.630Z,27.52
2018-07-19T11:29:33.596Z,27.47
2018-07-19T11:30:33.574Z,27.49
2018-07-19T11:31:33.572Z,27.40
2018-07-19T11:32:33.566Z,27.40
2018-07-19T11:33:33.547Z,27.37
2018-07-19T11:34:33.501Z,27.35
2018-07-19T11:35:33.485Z,27.35
2018-07-19T11:36:33.458Z,27.26
2018-07-19T11:37:33.429Z,27.29
2018-07-19T11:38:33.426Z,27.32
2018-07-19T11:39:33.410Z,27.32
2018-07-19T11:40:33.374Z,27.27
2018-07-19T11:41:33.345Z,27.29
2018-07-19T11:42:33.329Z,27.27
2018-07-19T11:43:33.297Z,27.26
2018-07-19T11:44:33.265Z,27.25
2018-07-19T11:45:33.273Z,27.30
2018-07-19T11:46:33.222Z,27.21
2018-07-19T11:47:33.203Z,27.18
2018-07-19T11:48:33.193Z,27.17
2018-07-19T11:49:33.149Z,27.05
2018-07-19T11:50:33.131Z,26.99
2018-07-19T11:51:33.124Z,26.96
2018-07-19T11:52:33.093Z,26.85
2018-07-19T11:53:33.157Z,26.89
2018-07-19T11:54:33.060Z,26.83
2018-07-19T11:55:33.075Z,26.90
2018-07-19T11:56:32.994Z,26.89
2018-07-19T11:57:32.979Z,26.92
2018-07-19T11:58:32.977Z,26.85
2018-07-19T11:59:32.940Z,26.80
2018-07-19T12:00:32.919Z,26.88
2018-07-19T12:01:32.898Z,26.77
2018-07-19T12:02:32.871Z,26.88
2018-07-19T12:03:32.883Z,26.85
2018-07-19T12:04:32.864Z,26.75
2018-07-19T12:05:32.785Z,26.75
2018-07-19T12:06:32.795Z,26.77
2018-07-19T12:07:32.746Z,26.84
2018-07-19T12:08:32.722Z,26.77
2018-07-19T12:09:32.694Z,26.84
2018-07-19T12:10:32.677Z,26.92
2018-07-19T12:11:32.650Z,26.83
2018-07-19T12:12:32.630Z,26.88
2018-07-19T12:13:32.607Z,26.95
2018-07-19T12:14:32.587Z,26.88
2018-07-19T12:15:32.560Z,26.88
2018-07-19T12:16:32.536Z,26.93
2018-07-19T12:17:32.511Z,27.07
2018-07-19T12:18:32.489Z,27.02
2018-07-19T12:19:32.472Z,27.05
2018-07-19T12:20:32.448Z,27.20
2018-07-19T12:21:32.422Z,27.25
2018-07-19T12:22:32.413Z,27.25
2018-07-19T12:23:32.388Z,27.27
2018-07-19T12:24:32.355Z,27.30
2018-07-19T12:25:32.333Z,27.32
2018-07-19T12:26:32.334Z,27.42
2018-07-19T12:27:32.285Z,27.49
2018-07-19T12:28:32.274Z,27.55
2018-07-19T12:29:32.240Z,27.59
2018-07-19T12:30:32.220Z,27.74
2018-07-19T12:31:32.204Z,27.71
2018-07-19T12:32:32.181Z,27.74
2018-07-19T12:33:32.156Z,27.75
2018-07-19T12:34:32.136Z,27.85
2018-07-19T12:35:32.102Z,27.93
2018-07-19T12:36:32.084Z,27.93
2018-07-19T12:37:32.058Z,27.95
2018-07-19T12:38:32.045Z,28.02
2018-07-19T12:39:32.020Z,27.92
2018-07-19T12:40:32.001Z,27.98
2018-07-19T12:41:31.969Z,28.05
2018-07-19T12:42:32.000Z,28.12
2018-07-19T12:43:31.930Z,28.30
2018-07-19T12:44:31.902Z,28.30
2018-07-19T12:45:31.889Z,28.33
2018-07-19T12:46:31.866Z,28.41
2018-07-19T12:47:31.842Z,28.56
2018-07-19T12:48:31.821Z,28.69
2018-07-19T12:49:31.796Z,28.79
2018-07-19T12:50:31.774Z,28.81
2018-07-19T12:51:31.781Z,28.94
2018-07-19T12:52:31.728Z,29.08